Time;durP1;ratioP1;P1;durP2;ratioP2;P2;SDS_P1;SDS_P2;PMS_P1;PMS_P2;Temp;Humidity;BMP_temperature;BMP_pressure;BME280_temperature;BME280_humidity;BME280_pressure;Samples;Min_cycle;Max_cycle;Signal;HPM_P1;HPM_P2
2022/03/16 00:00:46;;;;;;;88.07;36.17;;;;;;;5.03;100.00;101406.09;8393052;28;20467;-64
2022/03/16 00:04:49;;;;;;;93.20;35.95;;;;;;;4.85;100.00;101412.47;8393166;28;20043;-64
2022/03/16 00:08:49;;;;;;;93.07;38.30;;;;;;;4.88;100.00;101412.28;8375235;28;20519;-64
2022/03/16 00:12:49;;;;;;;86.70;36.95;;;;;;;4.70;100.00;101419.47;8337130;28;20374;-64
2022/03/16 00:16:50;;;;;;;76.28;33.42;;;;;;;4.26;100.00;101417.41;8355015;28;20128;-64
2022/03/16 00:20:51;;;;;;;92.13;37.00;;;;;;;4.48;100.00;101420.72;8361590;28;20141;-64
2022/03/16 00:24:52;;;;;;;87.43;35.03;;;;;;;4.53;100.00;101415.97;8350367;28;20037;-64
2022/03/16 00:28:52;;;;;;;90.60;36.65;;;;;;;4.66;100.00;101423.28;8359318;28;20134;-64
2022/03/16 00:32:53;;;;;;;85.97;36.00;;;;;;;4.51;100.00;101417.88;8347552;28;20064;-64
2022/03/16 00:36:54;;;;;;;87.75;33.88;;;;;;;4.60;100.00;101422.75;8360115;28;20072;-64
2022/03/16 00:40:54;;;;;;;88.30;35.30;;;;;;;4.68;100.00;101407.13;8351174;28;20090;-65
2022/03/16 00:44:54;;;;;;;94.40;38.20;;;;;;;4.66;100.00;101417.09;8345500;28;20036;-65
2022/03/16 00:48:55;;;;;;;91.85;37.58;;;;;;;4.55;100.00;101408.72;8356378;28;20997;-64
2022/03/16 00:52:55;;;;;;;89.07;35.75;;;;;;;4.45;100.00;101412.84;8351344;28;20478;-65
2022/03/16 00:56:56;;;;;;;90.68;36.40;;;;;;;4.42;100.00;101410.34;8356055;28;20076;-65
2022/03/16 01:00:57;;;;;;;104.30;40.42;;;;;;;4.46;100.00;101406.53;8358664;28;20036;-65
2022/03/16 01:04:58;;;;;;;89.72;36.67;;;;;;;4.44;100.00;101403.06;8356599;28;20033;-65
2022/03/16 01:08:59;;;;;;;96.50;39.05;;;;;;;4.39;100.00;101394.44;8358127;28;20036;-65
2022/03/16 01:12:59;;;;;;;88.60;34.88;;;;;;;4.30;100.00;101393.06;8343746;28;20037;-65
2022/03/16 01:17:00;;;;;;;84.65;32.67;;;;;;;4.11;100.00;101397.66;8357669;28;20044;-65
2022/03/16 01:21:04;;;;;;;90.85;38.17;;;;;;;4.18;100.00;101387.50;8357030;28;20041;-65
2022/03/16 01:25:05;;;;;;;88.73;35.37;;;;;;;4.36;100.00;101386.56;8351444;28;20033;-65
2022/03/16 01:29:05;;;;;;;84.53;34.67;;;;;;;4.21;100.00;101382.84;8361644;28;20028;-65
2022/03/16 01:33:06;;;;;;;98.82;37.60;;;;;;;4.41;100.00;101390.72;8355344;28;20039;-65
2022/03/16 01:37:06;;;;;;;83.93;35.95;;;;;;;4.62;100.00;101383.34;8378317;28;20053;-65
2022/03/16 01:41:06;;;;;;;92.35;37.88;;;;;;;4.46;100.00;101383.31;8355755;28;20045;-65
2022/03/16 01:45:07;;;;;;;93.40;38.55;;;;;;;4.47;100.00;101384.16;8355124;28;20041;-65
2022/03/16 01:49:08;;;;;;;91.78;37.70;;;;;;;4.50;100.00;101384.88;8355317;28;20029;-65
2022/03/16 01:53:10;;;;;;;92.63;38.80;;;;;;;4.73;100.00;101392.53;8360361;28;20033;-65
2022/03/16 01:57:12;;;;;;;92.28;40.92;;;;;;;4.56;100.00;101397.06;8355255;28;20426;-65
2022/03/16 02:01:13;;;;;;;91.28;37.63;;;;;;;4.31;100.00;101391.28;8356894;28;20041;-65
2022/03/16 02:05:14;;;;;;;92.30;40.05;;;;;;;3.95;100.00;101388.69;8354842;28;20097;-65
2022/03/16 02:09:14;;;;;;;104.55;41.85;;;;;;;4.34;100.00;101383.09;8354438;28;20032;-65
2022/03/16 02:13:15;;;;;;;99.57;40.60;;;;;;;4.28;100.00;101386.06;8359079;28;20094;-65
2022/03/16 02:17:15;;;;;;;104.13;39.28;;;;;;;4.54;100.00;101382.91;8360786;28;20049;-65
2022/03/16 02:21:16;;;;;;;96.45;40.33;;;;;;;4.49;100.00;101390.31;8358819;28;20037;-65
2022/03/16 02:25:18;;;;;;;111.22;44.55;;;;;;;4.41;100.00;101381.81;8355748;28;20025;-65
2022/03/16 02:29:18;;;;;;;98.07;41.35;;;;;;;4.57;100.00;101383.59;8356216;28;20033;-65
2022/03/16 02:33:19;;;;;;;99.88;40.80;;;;;;;4.51;100.00;101380.41;8355570;28;20037;-65
2022/03/16 02:37:19;;;;;;;98.45;41.40;;;;;;;4.36;100.00;101382.03;8357464;28;20041;-65
2022/03/16 02:41:20;;;;;;;108.65;41.22;;;;;;;4.24;100.00;101381.84;8357800;28;20037;-65
2022/03/16 02:45:20;;;;;;;103.32;39.95;;;;;;;4.24;100.00;101376.50;8355337;28;20117;-65
2022/03/16 02:49:21;;;;;;;102.78;42.97;;;;;;;4.17;100.00;101380.44;8357796;28;20086;-65
2022/03/16 02:53:21;;;;;;;108.57;42.08;;;;;;;4.39;100.00;101381.88;8357189;28;20033;-65
2022/03/16 02:57:22;;;;;;;94.75;39.63;;;;;;;4.33;100.00;101384.03;8355261;28;20033;-65
2022/03/16 03:01:23;;;;;;;98.32;40.92;;;;;;;4.28;100.00;101383.41;8354321;28;20040;-65
2022/03/16 03:05:23;;;;;;;97.57;38.95;;;;;;;4.27;100.00;101395.06;8354421;28;20045;-65
2022/03/16 03:09:23;;;;;;;98.65;40.15;;;;;;;4.19;100.00;101394.59;8351967;28;20075;-65
2022/03/16 03:13:24;;;;;;;98.60;40.47;;;;;;;4.14;100.00;101386.78;8355495;28;20044;-65
2022/03/16 03:17:25;;;;;;;88.32;36.85;;;;;;;4.05;100.00;101393.50;8353517;28;20465;-65
2022/03/16 03:21:26;;;;;;;94.10;39.80;;;;;;;4.17;100.00;101389.31;8339532;28;20366;-65
2022/03/16 03:25:27;;;;;;;87.00;36.65;;;;;;;4.13;100.00;101379.72;8361746;28;20071;-65
2022/03/16 03:29:27;;;;;;;92.00;36.95;;;;;;;4.05;100.00;101393.50;8360105;28;20119;-65
2022/03/16 03:33:28;;;;;;;90.25;35.03;;;;;;;3.98;100.00;101381.38;8360273;28;20044;-65
2022/03/16 03:37:29;;;;;;;94.05;36.70;;;;;;;4.15;100.00;101377.84;8359215;28;20126;-65
2022/03/16 03:41:30;;;;;;;101.32;36.67;;;;;;;4.15;100.00;101368.94;8371191;28;20057;-65
2022/03/16 03:45:31;;;;;;;97.78;37.10;;;;;;;4.21;100.00;101377.50;8384932;28;20048;-65
2022/03/16 03:49:34;;;;;;;97.50;39.58;;;;;;;4.42;100.00;101370.19;8360955;28;20037;-66
2022/03/16 03:53:34;;;;;;;100.03;39.88;;;;;;;4.43;100.00;101374.56;8358846;28;20127;-65
2022/03/16 03:57:34;;;;;;;104.43;38.53;;;;;;;4.38;100.00;101373.94;8357461;28;20041;-65
2022/03/16 04:01:35;;;;;;;93.93;34.75;;;;;;;4.09;100.00;101375.47;8360653;28;20422;-65
2022/03/16 04:05:35;;;;;;;84.60;33.00;;;;;;;3.89;100.00;101376.50;8358694;28;20503;-65
2022/03/16 04:09:36;;;;;;;96.07;35.40;;;;;;;3.67;100.00;101375.84;8359776;28;20151;-65
2022/03/16 04:13:36;;;;;;;81.57;32.70;;;;;;;3.43;100.00;101387.72;8357819;28;20044;-65
2022/03/16 04:17:37;;;;;;;101.43;29.33;;;;;;;3.08;100.00;101383.19;8358148;28;20126;-65
2022/03/16 04:21:37;;;;;;;140.30;29.48;;;;;;;2.95;100.00;101384.72;8363681;28;20527;-65
2022/03/16 04:25:38;;;;;;;171.88;32.38;;;;;;;3.02;100.00;101378.13;8345057;28;20037;-65
2022/03/16 04:29:38;;;;;;;140.38;33.78;;;;;;;3.04;100.00;101391.44;8362672;28;20041;-65
2022/03/16 04:33:38;;;;;;;113.97;33.00;;;;;;;3.20;100.00;101389.78;8358506;28;20408;-65
2022/03/16 04:37:39;;;;;;;141.32;37.45;;;;;;;3.21;100.00;101384.38;8356003;28;20041;-65
2022/03/16 04:41:39;;;;;;;177.77;41.47;;;;;;;3.34;100.00;101382.84;8350678;28;20116;-65
2022/03/16 04:45:40;;;;;;;235.80;42.80;;;;;;;3.56;100.00;101387.97;8361881;28;20160;-65
2022/03/16 04:49:41;;;;;;;387.48;50.25;;;;;;;3.81;100.00;101377.78;8362255;28;20052;-65
2022/03/16 04:53:41;;;;;;;349.35;51.50;;;;;;;4.29;100.00;101377.97;8347996;28;20494;-65
2022/03/16 04:57:42;;;;;;;307.25;49.38;;;;;;;4.63;100.00;101380.59;8355662;28;20090;-65
2022/03/16 05:01:43;;;;;;;195.38;44.08;;;;;;;4.99;100.00;101377.72;8357052;28;20446;-65
2022/03/16 05:05:43;;;;;;;173.38;41.65;;;;;;;5.00;100.00;101379.47;8360823;28;20041;-65
2022/03/16 05:09:44;;;;;;;193.20;44.60;;;;;;;5.16;100.00;101375.84;8358559;28;20067;-65
2022/03/16 05:13:44;;;;;;;207.48;44.15;;;;;;;5.29;100.00;101376.03;8359226;28;20045;-65
2022/03/16 05:17:45;;;;;;;200.63;45.03;;;;;;;5.30;100.00;101377.75;8351696;28;20091;-65
2022/03/16 05:21:46;;;;;;;195.23;43.20;;;;;;;5.39;100.00;101380.78;8363585;28;20045;-65
2022/03/16 05:25:46;;;;;;;184.60;40.78;;;;;;;5.47;100.00;101375.88;8360486;28;20072;-65
2022/03/16 05:29:47;;;;;;;177.65;46.17;;;;;;;5.27;100.00;101377.91;8357769;28;20041;-65
2022/03/16 05:33:48;;;;;;;168.23;42.83;;;;;;;5.13;100.00;101373.34;8356833;28;20041;-65
2022/03/16 05:37:49;;;;;;;178.52;42.45;;;;;;;5.12;100.00;101368.09;8355854;28;20491;-65
2022/03/16 05:41:49;;;;;;;148.40;39.38;;;;;;;5.19;100.00;101375.66;8338609;28;20124;-65
2022/03/16 05:45:50;;;;;;;160.23;42.63;;;;;;;5.09;100.00;101368.25;8360283;28;20040;-65
2022/03/16 05:49:53;;;;;;;164.60;42.63;;;;;;;5.12;100.00;101376.13;8342717;28;20024;-65
2022/03/16 05:53:53;;;;;;;144.35;40.65;;;;;;;5.11;100.00;101369.88;8374287;28;20116;-65
2022/03/16 05:57:54;;;;;;;150.05;39.25;;;;;;;5.27;100.00;101376.13;8361469;28;20048;-65
2022/03/16 06:01:54;;;;;;;139.85;39.58;;;;;;;5.21;100.00;101380.94;8357124;28;20115;-65
2022/03/16 06:05:54;;;;;;;137.45;40.28;;;;;;;5.19;100.00;101375.66;8351340;28;20037;-65
2022/03/16 06:09:55;;;;;;;144.07;43.38;;;;;;;5.28;100.00;101374.31;8359973;28;20136;-65
2022/03/16 06:13:55;;;;;;;127.40;41.47;;;;;;;5.42;100.00;101388.66;8362894;28;20442;-65
2022/03/16 06:17:57;;;;;;;131.98;42.53;;;;;;;5.61;100.00;101388.44;8384800;28;20044;-65
2022/03/16 06:21:58;;;;;;;125.50;37.78;;;;;;;5.72;100.00;101396.75;8384251;28;20043;-65
2022/03/16 06:25:58;;;;;;;124.45;40.08;;;;;;;5.66;100.00;101391.75;8383340;28;20037;-65
2022/03/16 06:29:58;;;;;;;116.65;38.92;;;;;;;5.73;100.00;101391.31;8380337;28;20048;-65
2022/03/16 06:33:59;;;;;;;103.18;38.63;;;;;;;5.77;100.00;101390.16;8378259;28;20048;-65
2022/03/16 06:37:59;;;;;;;93.20;38.00;;;;;;;5.95;100.00;101396.34;8374053;28;20497;-64
2022/03/16 06:42:00;;;;;;;98.65;35.58;;;;;;;5.86;100.00;101394.19;8383363;28;20044;-64
2022/03/16 06:46:00;;;;;;;89.80;35.13;;;;;;;5.93;100.00;101392.88;8384153;28;20459;-64
2022/03/16 06:50:01;;;;;;;83.40;33.00;;;;;;;5.96;100.00;101398.06;8384702;28;20089;-64
2022/03/16 06:54:01;;;;;;;83.50;35.75;;;;;;;6.04;100.00;101399.31;8383899;28;20116;-64
2022/03/16 06:58:01;;;;;;;79.03;32.17;;;;;;;6.07;100.00;101398.28;8387579;28;20444;-64
2022/03/16 07:02:02;;;;;;;72.20;31.23;;;;;;;6.17;100.00;101394.09;8391742;28;20044;-64
2022/03/16 07:06:02;;;;;;;70.72;30.58;;;;;;;6.35;100.00;101393.00;8390696;28;20033;-64
2022/03/16 07:10:03;;;;;;;65.03;30.42;;;;;;;6.51;100.00;101388.44;8391351;28;20032;-64
2022/03/16 07:14:35;;;;;;;62.90;31.40;;;;;;;6.68;100.00;101385.56;8389008;28;20127;-64
2022/03/16 07:18:24;;;;;;;59.28;29.45;;;;;;;6.91;100.00;101393.06;8391090;28;20024;-64
2022/03/16 07:22:24;;;;;;;60.92;30.15;;;;;;;6.99;100.00;101390.78;8390482;28;20119;-64
2022/03/16 07:26:25;;;;;;;55.72;29.45;;;;;;;7.31;100.00;101389.56;8389025;28;20052;-64
2022/03/16 07:30:25;;;;;;;54.22;28.40;;;;;;;7.51;100.00;101391.81;8389384;28;20033;-64
2022/03/16 07:34:27;;;;;;;51.28;26.98;;;;;;;7.67;100.00;101405.16;8388836;28;20048;-64
2022/03/16 07:38:27;;;;;;;50.72;26.60;;;;;;;7.79;100.00;101410.59;8389225;28;20075;-64
2022/03/16 07:42:27;;;;;;;48.43;25.70;;;;;;;7.94;100.00;101419.47;8390371;28;20685;-64
2022/03/16 07:46:28;;;;;;;46.05;24.40;;;;;;;7.91;100.00;101414.28;8390090;28;20350;-64
2022/03/16 07:50:28;;;;;;;43.05;23.27;;;;;;;8.04;100.00;101416.06;8390046;28;20531;-64
2022/03/16 07:54:29;;;;;;;46.45;24.50;;;;;;;8.24;100.00;101416.59;8388211;28;20040;-64
2022/03/16 07:58:29;;;;;;;45.75;24.25;;;;;;;8.23;100.00;101414.88;8389939;28;20040;-64
2022/03/16 08:02:29;;;;;;;50.03;25.10;;;;;;;8.40;100.00;101415.44;8393121;28;20040;-65
2022/03/16 08:06:30;;;;;;;45.88;23.65;;;;;;;8.53;100.00;101410.06;8406714;28;20170;-64
2022/03/16 08:10:30;;;;;;;50.53;25.52;;;;;;;8.70;100.00;101410.63;8389570;28;20128;-64
2022/03/16 08:14:31;;;;;;;41.58;23.25;;;;;;;8.93;100.00;101388.28;8387277;28;20429;-64
2022/03/16 08:18:32;;;;;;;42.83;23.67;;;;;;;9.11;100.00;101391.50;8389154;28;20036;-64
2022/03/16 08:22:34;;;;;;;37.65;21.48;;;;;;;9.00;100.00;101384.19;8387533;28;20037;-64
2022/03/16 08:26:35;;;;;;;39.97;20.90;;;;;;;9.26;100.00;101385.00;8382212;28;20044;-64
2022/03/16 08:30:35;;;;;;;38.45;22.20;;;;;;;9.21;100.00;101388.03;8388808;28;20111;-64
2022/03/16 08:34:36;;;;;;;35.97;19.60;;;;;;;9.63;100.00;101393.00;8386638;28;20067;-64
2022/03/16 08:38:37;;;;;;;38.10;20.70;;;;;;;9.60;100.00;101378.88;8388547;28;20464;-64
2022/03/16 08:42:38;;;;;;;33.75;19.60;;;;;;;9.82;100.00;101384.38;8388079;28;20309;-64
2022/03/16 08:46:38;;;;;;;33.67;19.80;;;;;;;10.03;98.38;101388.19;8385884;28;20142;-64
2022/03/16 08:50:39;;;;;;;31.38;18.25;;;;;;;10.30;96.87;101383.41;8386535;28;20045;-64
2022/03/16 08:54:40;;;;;;;34.53;19.27;;;;;;;10.28;96.71;101385.34;8387385;28;20120;-64
2022/03/16 08:58:40;;;;;;;29.98;17.05;;;;;;;10.31;93.78;101378.88;8386876;28;20040;-64
2022/03/16 09:02:42;;;;;;;31.05;17.55;;;;;;;10.54;92.67;101375.25;8388045;28;20032;-64
2022/03/16 09:06:42;;;;;;;27.73;17.42;;;;;;;10.59;92.02;101373.06;8387291;28;20447;-65
2022/03/16 09:10:43;;;;;;;27.50;16.50;;;;;;;10.84;90.78;101368.31;8385956;28;20313;-64
2022/03/16 09:14:43;;;;;;;27.92;16.35;;;;;;;11.03;90.13;101359.56;8386833;28;20052;-64
2022/03/16 09:18:45;;;;;;;25.80;15.18;;;;;;;10.98;88.59;101376.16;8386565;28;20356;-64
2022/03/16 09:22:46;;;;;;;24.80;15.40;;;;;;;11.17;87.29;101371.03;8386651;28;20037;-64
2022/03/16 09:26:46;;;;;;;26.17;16.53;;;;;;;11.21;85.63;101364.38;8386412;28;20610;-64
2022/03/16 09:30:48;;;;;;;23.58;14.13;;;;;;;11.93;83.30;101376.47;8385245;28;20282;-65
2022/03/16 09:34:50;;;;;;;21.85;13.95;;;;;;;12.26;80.80;101361.91;8385614;28;20040;-65
2022/03/16 09:38:50;;;;;;;22.13;13.95;;;;;;;12.76;78.72;101358.38;8384947;28;20044;-64
2022/03/16 09:42:52;;;;;;;19.33;13.48;;;;;;;13.09;77.01;101363.59;8386047;28;20094;-64
2022/03/16 09:46:54;;;;;;;20.60;12.70;;;;;;;13.31;76.13;101341.66;8384499;28;20115;-64
2022/03/16 09:50:56;;;;;;;20.95;13.75;;;;;;;13.32;74.90;101365.09;8384852;28;20230;-64
2022/03/16 09:54:56;;;;;;;18.42;11.98;;;;;;;13.76;73.73;101365.50;8385200;28;20047;-65
2022/03/16 09:58:56;;;;;;;19.73;11.73;;;;;;;13.71;73.04;101356.94;8386054;28;20112;-65
2022/03/16 10:03:02;;;;;;;17.02;11.70;;;;;;;14.22;72.84;101350.38;8384162;28;20123;-65
2022/03/16 10:07:05;;;;;;;17.58;11.70;;;;;;;14.59;71.35;101344.09;8385405;28;20040;-65
2022/03/16 10:15:30;;;;;;;20.05;12.75;;;;;;;14.10;71.30;101341.53;8381270;28;20723;-65
2022/03/16 10:19:31;;;;;;;18.05;11.35;;;;;;;14.63;70.17;101326.44;8384002;28;20405;-64
2022/03/16 10:23:31;;;;;;;16.00;10.43;;;;;;;14.62;69.01;101342.94;8384783;28;20044;-65
2022/03/16 10:27:36;;;;;;;15.95;11.18;;;;;;;15.19;68.51;101337.31;8385438;28;20045;-65
2022/03/16 10:31:37;;;;;;;16.48;11.48;;;;;;;15.49;67.16;101340.59;8376954;28;20559;-65
2022/03/16 10:35:54;;;;;;;16.08;10.10;;;;;;;15.06;67.11;101343.06;8384616;28;20102;-65
2022/03/16 10:39:54;;;;;;;17.23;11.32;;;;;;;15.50;66.43;101336.88;8385184;28;20568;-65
2022/03/16 10:48:22;;;;;;;14.98;10.43;;;;;;;15.71;65.37;101323.00;8384975;28;20057;-65
2022/03/16 10:52:23;;;;;;;14.63;10.00;;;;;;;15.28;66.79;101315.44;8384473;28;20401;-65
2022/03/16 10:56:26;;;;;;;15.70;10.35;;;;;;;15.42;67.33;101320.44;8384560;28;20123;-65
2022/03/16 11:00:28;;;;;;;15.88;10.55;;;;;;;15.38;66.97;101324.47;8383609;28;20048;-65
2022/03/16 11:04:33;;;;;;;14.43;10.63;;;;;;;15.32;66.25;101305.97;8383085;28;20562;-64
2022/03/16 11:08:37;;;;;;;15.50;11.27;;;;;;;14.18;69.30;101295.41;8369013;28;20300;-65
2022/03/16 11:13:39;;;;;;;15.33;10.77;;;;;;;13.96;70.06;101298.44;8384625;28;20436;-64
2022/03/16 11:16:59;;;;;;;18.08;11.60;;;;;;;14.10;70.40;101325.19;8383529;28;20287;-65
2022/03/16 11:21:07;;;;;;;17.20;10.88;;;;;;;14.77;70.12;101309.66;8378192;28;20043;-64
2022/03/16 11:25:12;;;;;;;14.05;10.30;;;;;;;14.75;67.41;101311.66;8377235;28;20048;-64
2022/03/16 11:29:39;;;;;;;15.65;10.10;;;;;;;14.59;69.09;101322.31;8383961;28;20489;-64
2022/03/16 11:33:55;;;;;;;14.93;10.68;;;;;;;14.52;68.63;101301.28;8372195;28;20051;-64
2022/03/16 11:38:01;;;;;;;13.90;10.55;;;;;;;14.14;69.28;101320.31;8378106;28;20037;-65
2022/03/16 11:42:01;;;;;;;13.27;10.07;;;;;;;14.45;68.56;101301.00;8374297;28;20040;-65
2022/03/16 11:46:02;;;;;;;14.93;10.82;;;;;;;15.28;67.64;101271.84;8382557;28;20082;-65
2022/03/16 11:50:11;;;;;;;14.52;9.60;;;;;;;15.20;65.61;101290.84;8383756;28;20119;-64
2022/03/16 11:54:12;;;;;;;11.63;9.27;;;;;;;15.27;65.88;101301.97;8376898;28;20033;-65
2022/03/16 11:58:29;;;;;;;13.13;9.52;;;;;;;15.62;65.68;101286.56;8384105;28;20264;-64
2022/03/16 12:02:29;;;;;;;14.50;9.82;;;;;;;15.07;66.23;101290.31;8384482;28;20037;-64
2022/03/16 12:06:30;;;;;;;13.07;9.52;;;;;;;14.76;66.85;101280.69;8386430;28;20067;-65
2022/03/16 12:10:45;;;;;;;14.90;9.85;;;;;;;14.57;68.21;101269.88;8386844;28;20033;-65
2022/03/16 12:19:29;;;;;;;13.15;9.57;;;;;;;15.46;66.49;101269.19;8355541;27;20418;-64
2022/03/16 12:23:44;;;;;;;14.18;9.07;;;;;;;15.35;67.11;101272.97;8345531;28;20062;-64
2022/03/16 12:29:01;;;;;;;13.38;9.45;;;;;;;14.59;67.38;101267.88;8377443;28;20041;-64
2022/03/16 12:32:05;;;;;;;13.25;9.35;;;;;;;14.55;68.81;101254.72;8376632;28;20503;-63
2022/03/16 12:36:11;;;;;;;14.10;9.27;;;;;;;14.47;68.91;101247.28;8379747;28;20136;-63
2022/03/16 12:40:12;;;;;;;13.75;8.43;;;;;;;14.65;68.54;101242.78;8366687;28;20051;-63
2022/03/16 12:44:16;;;;;;;12.35;9.15;;;;;;;14.18;69.26;101235.56;8384945;28;20040;-65
2022/03/16 12:48:20;;;;;;;12.33;9.37;;;;;;;14.37;69.33;101245.59;8381067;28;20035;-65
2022/03/16 12:52:21;;;;;;;13.05;8.90;;;;;;;14.26;69.64;101237.59;8396186;28;20492;-66
2022/03/16 12:56:21;;;;;;;13.52;8.55;;;;;;;13.99;69.69;101235.59;8408474;28;20507;-63
2022/03/16 13:00:31;;;;;;;11.77;8.65;;;;;;;14.02;70.25;101224.44;8378917;28;20040;-63
2022/03/16 13:04:31;;;;;;;13.45;8.23;;;;;;;13.90;70.67;101225.59;8375906;28;20047;-63
2022/03/16 13:08:33;;;;;;;12.60;9.15;;;;;;;14.01;71.68;101221.88;8377922;28;20040;-64
2022/03/16 13:12:34;;;;;;;13.32;9.00;;;;;;;14.10;71.58;101224.59;8376810;28;20112;-63
2022/03/16 13:16:38;;;;;;;10.60;7.50;;;;;;;14.09;71.26;101214.69;8377431;28;20032;-63
2022/03/16 13:20:39;;;;;;;;;;;;;;;13.94;73.04;101218.91;8393319;28;20094;-63
2022/03/16 13:24:48;;;;;;;10.68;7.60;;;;;;;13.83;72.41;101213.59;8408920;28;19916;-63
2022/03/16 13:28:50;;;;;;;12.85;9.65;;;;;;;13.92;73.32;101207.28;8396554;28;20029;-63
2022/03/16 13:32:52;;;;;;;14.38;9.07;;;;;;;13.93;73.19;101205.44;8365776;28;20120;-63
2022/03/16 13:36:54;;;;;;;13.45;8.88;;;;;;;13.91;73.26;101200.16;8355443;28;20033;-63
2022/03/16 13:40:55;;;;;;;12.35;8.80;;;;;;;13.91;72.58;101211.03;8354469;28;20057;-63
2022/03/16 13:45:20;;;;;;;13.63;8.75;;;;;;;13.96;73.28;101178.81;8355028;28;20529;-63
2022/03/16 13:49:22;;;;;;;13.30;9.00;;;;;;;14.07;73.41;101194.97;8356828;28;20518;-63
2022/03/16 13:53:25;;;;;;;13.20;8.77;;;;;;;14.02;71.44;101202.69;8385689;28;20024;-63
2022/03/16 13:57:29;;;;;;;10.85;7.22;;;;;;;13.99;71.63;101170.38;8369471;28;20040;-63
2022/03/16 14:01:30;;;;;;;12.70;7.78;;;;;;;13.99;70.98;101192.13;8352763;28;20045;-63
2022/03/16 14:05:35;;;;;;;11.05;6.93;;;;;;;13.93;71.47;101184.53;8351362;28;20048;-65
2022/03/16 14:09:43;;;;;;;9.30;7.03;;;;;;;13.82;70.47;101193.72;8354079;28;20433;-63
2022/03/16 14:13:45;;;;;;;10.98;7.05;;;;;;;13.95;70.90;101187.97;8347479;28;20041;-63
2022/03/16 14:17:53;;;;;;;12.30;7.90;;;;;;;13.84;71.67;101166.38;8353711;28;20511;-63
2022/03/16 14:21:54;;;;;;;12.07;7.53;;;;;;;13.88;70.54;101172.41;8384957;28;20045;-63
2022/03/16 14:25:57;;;;;;;11.23;7.93;;;;;;;13.83;71.21;101164.69;8384997;28;20528;-63
2022/03/16 14:29:57;;;;;;;13.77;7.63;;;;;;;13.74;70.53;101151.97;8386192;28;20567;-63
2022/03/16 14:33:57;;;;;;;11.75;7.93;;;;;;;13.76;70.51;101142.66;8386200;28;20179;-63
2022/03/16 14:38:04;;;;;;;10.55;7.57;;;;;;;13.75;69.70;101145.50;8386114;28;20515;-63
2022/03/16 14:42:05;;;;;;;12.68;7.32;;;;;;;13.68;69.97;101141.66;8365137;28;20043;-64
2022/03/16 14:46:06;;;;;;;12.32;7.75;;;;;;;13.57;69.80;101130.94;8354303;28;20028;-64
2022/03/16 14:50:06;;;;;;;14.07;7.32;;;;;;;13.47;69.85;101135.53;8360042;28;20044;-63
2022/03/16 14:54:08;;;;;;;10.50;7.65;;;;;;;13.44;70.12;101135.81;8386007;28;20528;-63
2022/03/16 14:58:08;;;;;;;14.07;8.13;;;;;;;13.41;70.53;101122.53;8384069;28;20111;-63
2022/03/16 15:02:09;;;;;;;13.95;8.45;;;;;;;13.40;70.14;101134.41;8385494;28;20041;-63
2022/03/16 15:06:09;;;;;;;12.65;7.95;;;;;;;13.39;70.33;101140.84;8340473;28;20080;-63
2022/03/16 15:10:12;;;;;;;10.35;7.47;;;;;;;13.44;70.78;101135.81;8342682;28;20041;-63
2022/03/16 15:14:13;;;;;;;13.38;8.45;;;;;;;13.36;71.01;101117.53;8338624;28;20037;-63
2022/03/16 15:18:13;;;;;;;12.55;7.50;;;;;;;13.32;71.55;101118.81;8375793;28;20032;-63
2022/03/16 15:22:14;;;;;;;11.52;7.85;;;;;;;13.31;72.02;101113.53;8381655;28;20055;-63
2022/03/16 15:26:15;;;;;;;13.85;8.75;;;;;;;13.27;71.30;101093.94;8383149;28;20382;-63
2022/03/16 15:30:15;;;;;;;14.57;8.30;;;;;;;13.27;71.00;101109.41;8384968;28;20036;-63
2022/03/16 15:34:16;;;;;;;12.70;8.18;;;;;;;13.27;71.39;101112.13;8372941;28;20090;-63
2022/03/16 15:38:16;;;;;;;15.32;9.60;;;;;;;13.22;71.84;101106.25;8337266;28;20044;-63
2022/03/16 15:42:48;;;;;;;14.23;9.88;;;;;;;13.24;72.06;101106.97;8364552;28;20359;-63
2022/03/16 15:46:37;;;;;;;17.25;10.02;;;;;;;13.24;72.29;101104.25;8368728;28;20045;-63
2022/03/16 15:50:37;;;;;;;12.95;9.18;;;;;;;13.18;72.44;101092.09;8355581;28;20067;-63
2022/03/16 15:54:39;;;;;;;12.15;8.57;;;;;;;13.22;72.81;101087.25;8349532;28;20087;-63
2022/03/16 15:58:39;;;;;;;14.25;10.07;;;;;;;13.04;73.58;101094.38;8378753;28;20132;-63
2022/03/16 16:02:39;;;;;;;15.88;10.55;;;;;;;13.06;73.71;101108.69;8381512;28;20513;-63
2022/03/16 16:06:41;;;;;;;17.40;10.75;;;;;;;13.00;74.17;101093.81;8351452;28;20068;-65
2022/03/16 16:11:07;;;;;;;17.15;11.30;;;;;;;12.98;74.82;101094.91;8348098;28;20060;-63
2022/03/16 16:15:03;;;;;;;18.30;11.05;;;;;;;12.89;75.33;101076.75;8349280;28;20530;-63
2022/03/16 16:19:05;;;;;;;19.45;12.73;;;;;;;12.83;76.56;101085.47;8351831;28;20052;-63
2022/03/16 16:23:05;;;;;;;17.95;11.57;;;;;;;12.84;76.31;101092.63;8381656;28;20489;-63
2022/03/16 16:27:06;;;;;;;17.55;12.75;;;;;;;12.80;76.61;101085.75;8380230;28;20400;-63
2022/03/16 16:31:09;;;;;;;20.70;13.02;;;;;;;12.77;76.89;101086.03;8360700;28;20127;-63
2022/03/16 16:35:09;;;;;;;17.92;11.60;;;;;;;12.77;76.92;101075.19;8349691;28;20230;-63
2022/03/16 16:39:10;;;;;;;20.45;12.40;;;;;;;12.73;77.39;101079.19;8345525;28;20072;-63
2022/03/16 16:43:13;;;;;;;17.77;11.55;;;;;;;12.71;77.60;101071.19;8348658;28;20087;-63
2022/03/16 16:47:17;;;;;;;20.45;13.55;;;;;;;12.64;78.21;101071.88;8349016;28;20041;-63
2022/03/16 16:51:18;;;;;;;19.63;12.25;;;;;;;12.62;78.57;101065.72;8361609;28;20048;-63
2022/03/16 16:55:19;;;;;;;22.63;12.50;;;;;;;12.47;78.97;101081.56;8359015;28;20033;-63
2022/03/16 16:59:20;;;;;;;18.75;13.25;;;;;;;12.49;79.51;101084.13;8336359;28;20406;-63
2022/03/16 17:03:22;;;;;;;18.48;12.45;;;;;;;12.47;79.59;101094.28;8364560;28;20045;-63
2022/03/16 17:07:23;;;;;;;20.50;12.65;;;;;;;12.49;79.42;101082.28;8364791;28;20032;-63
2022/03/16 17:11:24;;;;;;;18.25;12.82;;;;;;;12.45;79.40;101085.41;8355024;28;20060;-63
2022/03/16 17:15:26;;;;;;;16.43;11.47;;;;;;;12.44;79.63;101078.28;8345329;28;20038;-63
2022/03/16 17:19:26;;;;;;;18.42;12.43;;;;;;;12.29;80.80;101087.78;8351420;28;20869;-63
2022/03/16 17:23:27;;;;;;;22.23;12.80;;;;;;;12.31;80.91;101077.66;8344322;28;20437;-63
2022/03/16 17:27:28;;;;;;;23.13;14.10;;;;;;;12.17;81.74;101086.19;8349794;28;20044;-63
2022/03/16 17:31:28;;;;;;;24.07;13.27;;;;;;;12.17;81.83;101091.59;8340374;28;20634;-63
2022/03/16 17:35:32;;;;;;;23.73;14.65;;;;;;;12.05;82.52;101071.00;8351961;28;20278;-63
2022/03/16 17:39:32;;;;;;;23.95;13.23;;;;;;;11.99;83.01;101071.53;8359663;28;20047;-63
2022/03/16 17:47:53;;;;;;;20.15;13.57;;;;;;;11.80;84.31;101078.59;8342972;28;20441;-63
2022/03/16 17:51:54;;;;;;;23.23;13.88;;;;;;;11.78;84.51;101075.16;8352931;28;20095;-63
2022/03/16 17:56:57;;;;;;;22.27;14.43;;;;;;;11.65;85.39;101058.25;8363617;28;20045;-63
2022/03/16 18:00:17;;;;;;;23.48;14.23;;;;;;;11.60;85.97;101046.09;8355415;28;20462;-63
2022/03/16 18:04:19;;;;;;;24.00;14.85;;;;;;;11.51;86.46;101042.34;8382717;28;20024;-63
2022/03/16 18:08:23;;;;;;;22.88;14.52;;;;;;;11.53;86.35;101053.88;8384006;28;20040;-63
2022/03/16 18:13:24;;;;;;;23.08;14.32;;;;;;;11.52;86.45;101046.75;8354641;28;20068;-63
2022/03/16 18:16:44;;;;;;;29.67;15.63;;;;;;;11.46;86.51;101041.88;8331341;28;20057;-65
2022/03/16 18:20:45;;;;;;;26.23;15.30;;;;;;;11.39;87.54;101043.41;8341241;28;20045;-63
2022/03/16 18:24:45;;;;;;;26.20;14.90;;;;;;;11.26;88.09;101034.59;8358794;28;20045;-63
2022/03/16 18:28:46;;;;;;;24.23;15.88;;;;;;;11.24;88.36;101019.50;8348370;28;20095;-63
2022/03/16 18:32:46;;;;;;;23.63;14.77;;;;;;;11.27;88.59;101022.81;8379184;28;20432;-63
2022/03/16 18:36:48;;;;;;;24.60;14.85;;;;;;;11.34;88.01;101032.09;8350754;28;20552;-63